sensor_id;sensor_type;location;lat;lon;timestamp;P1;durP1;ratioP1;P2;durP2;ratioP2
60292;SDS011;52402;52.670;6.750;2022-11-06T00:00:58;14.50;;;12.30;;
60292;SDS011;52402;52.670;6.750;2022-11-06T00:03:29;14.20;;;11.63;;
60292;SDS011;52402;52.670;6.750;2022-11-06T00:05:55;15.15;;;11.88;;
60292;SDS011;52402;52.670;6.750;2022-11-06T00:08:39;15.02;;;12.73;;
60292;SDS011;52402;52.670;6.750;2022-11-06T00:11:12;14.93;;;11.82;;
60292;SDS011;52402;52.670;6.750;2022-11-06T00:13:39;18.23;;;12.10;;
60292;SDS011;52402;52.670;6.750;2022-11-06T00:16:06;13.38;;;12.05;;
60292;SDS011;52402;52.670;6.750;2022-11-06T00:21:05;14.15;;;11.63;;
60292;SDS011;52402;52.670;6.750;2022-11-06T00:23:35;15.45;;;11.65;;
60292;SDS011;52402;52.670;6.750;2022-11-06T00:26:17;13.65;;;11.80;;
60292;SDS011;52402;52.670;6.750;2022-11-06T00:28:45;13.02;;;10.90;;
60292;SDS011;52402;52.670;6.750;2022-11-06T00:31:12;13.32;;;11.93;;
60292;SDS011;52402;52.670;6.750;2022-11-06T00:33:40;13.93;;;11.80;;
60292;SDS011;52402;52.670;6.750;2022-11-06T00:36:07;12.90;;;11.15;;
60292;SDS011;52402;52.670;6.750;2022-11-06T00:38:39;13.85;;;11.85;;
60292;SDS011;52402;52.670;6.750;2022-11-06T00:41:07;12.73;;;10.90;;
60292;SDS011;52402;52.670;6.750;2022-11-06T00:43:34;13.75;;;11.73;;
60292;SDS011;52402;52.670;6.750;2022-11-06T00:46:01;17.17;;;12.55;;
60292;SDS011;52402;52.670;6.750;2022-11-06T00:48:27;13.70;;;11.63;;
60292;SDS011;52402;52.670;6.750;2022-11-06T00:50:53;15.38;;;11.82;;
60292;SDS011;52402;52.670;6.750;2022-11-06T00:53:18;16.85;;;11.88;;
60292;SDS011;52402;52.670;6.750;2022-11-06T00:55:44;15.43;;;11.35;;
60292;SDS011;52402;52.670;6.750;2022-11-06T00:58:09;14.00;;;11.27;;
60292;SDS011;52402;52.670;6.750;2022-11-06T01:00:35;14.95;;;11.20;;
60292;SDS011;52402;52.670;6.750;2022-11-06T01:03:00;13.95;;;11.18;;
60292;SDS011;52402;52.670;6.750;2022-11-06T01:05:26;14.18;;;10.95;;
60292;SDS011;52402;52.670;6.750;2022-11-06T01:07:52;16.00;;;10.88;;
60292;SDS011;52402;52.670;6.750;2022-11-06T01:10:17;14.10;;;10.90;;
60292;SDS011;52402;52.670;6.750;2022-11-06T01:12:43;14.48;;;10.05;;
60292;SDS011;52402;52.670;6.750;2022-11-06T01:15:08;15.45;;;11.07;;
60292;SDS011;52402;52.670;6.750;2022-11-06T01:17:34;15.45;;;10.32;;
60292;SDS011;52402;52.670;6.750;2022-11-06T01:20:00;14.85;;;10.20;;
60292;SDS011;52402;52.670;6.750;2022-11-06T01:22:26;14.15;;;10.63;;
60292;SDS011;52402;52.670;6.750;2022-11-06T01:24:52;15.85;;;10.40;;
60292;SDS011;52402;52.670;6.750;2022-11-06T01:27:17;15.55;;;10.10;;
60292;SDS011;52402;52.670;6.750;2022-11-06T01:29:43;13.05;;;10.25;;
60292;SDS011;52402;52.670;6.750;2022-11-06T01:32:09;14.05;;;10.60;;
60292;SDS011;52402;52.670;6.750;2022-11-06T01:34:35;13.18;;;10.35;;
60292;SDS011;52402;52.670;6.750;2022-11-06T01:37:01;15.85;;;11.43;;
60292;SDS011;52402;52.670;6.750;2022-11-06T01:39:27;13.43;;;11.32;;
60292;SDS011;52402;52.670;6.750;2022-11-06T01:41:53;13.98;;;10.75;;
60292;SDS011;52402;52.670;6.750;2022-11-06T01:47:25;20.20;;;12.55;;
60292;SDS011;52402;52.670;6.750;2022-11-06T01:49:54;16.48;;;10.85;;
60292;SDS011;52402;52.670;6.750;2022-11-06T01:54:50;11.88;;;10.50;;
60292;SDS011;52402;52.670;6.750;2022-11-06T01:57:18;17.92;;;12.02;;
60292;SDS011;52402;52.670;6.750;2022-11-06T01:59:45;15.32;;;11.27;;
60292;SDS011;52402;52.670;6.750;2022-11-06T02:02:11;15.07;;;10.95;;
60292;SDS011;52402;52.670;6.750;2022-11-06T02:04:40;12.10;;;10.55;;
60292;SDS011;52402;52.670;6.750;2022-11-06T02:07:08;17.48;;;10.68;;
60292;SDS011;52402;52.670;6.750;2022-11-06T02:09:35;13.15;;;9.80;;
60292;SDS011;52402;52.670;6.750;2022-11-06T02:14:53;15.63;;;10.70;;
60292;SDS011;52402;52.670;6.750;2022-11-06T02:20:28;12.98;;;10.25;;
60292;SDS011;52402;52.670;6.750;2022-11-06T02:28:55;13.40;;;10.55;;
60292;SDS011;52402;52.670;6.750;2022-11-06T02:31:29;12.82;;;10.10;;
60292;SDS011;52402;52.670;6.750;2022-11-06T02:34:02;18.02;;;10.90;;
60292;SDS011;52402;52.670;6.750;2022-11-06T02:36:38;14.45;;;10.32;;
60292;SDS011;52402;52.670;6.750;2022-11-06T02:39:10;16.70;;;11.57;;
60292;SDS011;52402;52.670;6.750;2022-11-06T02:41:41;17.63;;;10.02;;
60292;SDS011;52402;52.670;6.750;2022-11-06T02:44:14;14.18;;;10.05;;
60292;SDS011;52402;52.670;6.750;2022-11-06T02:46:51;13.85;;;9.57;;
60292;SDS011;52402;52.670;6.750;2022-11-06T02:49:23;14.85;;;9.93;;
60292;SDS011;52402;52.670;6.750;2022-11-06T02:51:57;15.18;;;8.82;;
60292;SDS011;52402;52.670;6.750;2022-11-06T02:54:27;11.65;;;8.88;;
60292;SDS011;52402;52.670;6.750;2022-11-06T02:56:56;13.73;;;9.73;;
60292;SDS011;52402;52.670;6.750;2022-11-06T02:59:37;14.50;;;9.30;;
60292;SDS011;52402;52.670;6.750;2022-11-06T03:02:52;12.20;;;8.38;;
60292;SDS011;52402;52.670;6.750;2022-11-06T03:07:47;12.45;;;9.10;;
60292;SDS011;52402;52.670;6.750;2022-11-06T03:10:17;14.25;;;9.38;;
60292;SDS011;52402;52.670;6.750;2022-11-06T03:17:43;13.80;;;8.18;;
60292;SDS011;52402;52.670;6.750;2022-11-06T03:20:19;12.15;;;8.10;;
60292;SDS011;52402;52.670;6.750;2022-11-06T03:22:53;15.07;;;8.02;;
60292;SDS011;52402;52.670;6.750;2022-11-06T03:25:45;14.65;;;8.40;;
60292;SDS011;52402;52.670;6.750;2022-11-06T03:30:49;11.45;;;7.20;;
60292;SDS011;52402;52.670;6.750;2022-11-06T03:33:23;12.88;;;7.68;;
60292;SDS011;52402;52.670;6.750;2022-11-06T03:36:18;14.23;;;7.70;;
60292;SDS011;52402;52.670;6.750;2022-11-06T03:38:46;12.98;;;6.78;;
60292;SDS011;52402;52.670;6.750;2022-11-06T03:41:19;10.13;;;7.20;;
60292;SDS011;52402;52.670;6.750;2022-11-06T03:43:51;12.13;;;7.55;;
60292;SDS011;52402;52.670;6.750;2022-11-06T03:46:20;11.90;;;6.97;;
60292;SDS011;52402;52.670;6.750;2022-11-06T03:48:59;11.43;;;6.10;;
60292;SDS011;52402;52.670;6.750;2022-11-06T03:51:41;13.27;;;6.82;;
60292;SDS011;52402;52.670;6.750;2022-11-06T03:54:19;11.93;;;6.72;;
60292;SDS011;52402;52.670;6.750;2022-11-06T03:56:59;10.85;;;6.40;;
60292;SDS011;52402;52.670;6.750;2022-11-06T03:59:28;13.63;;;6.30;;
60292;SDS011;52402;52.670;6.750;2022-11-06T04:01:58;11.43;;;6.38;;
60292;SDS011;52402;52.670;6.750;2022-11-06T04:07:21;12.38;;;6.07;;
60292;SDS011;52402;52.670;6.750;2022-11-06T04:09:51;11.75;;;6.30;;
60292;SDS011;52402;52.670;6.750;2022-11-06T04:12:39;14.88;;;6.10;;
60292;SDS011;52402;52.670;6.750;2022-11-06T04:15:25;12.40;;;6.13;;
60292;SDS011;52402;52.670;6.750;2022-11-06T04:17:54;13.03;;;6.10;;
60292;SDS011;52402;52.670;6.750;2022-11-06T04:20:20;12.43;;;6.13;;
60292;SDS011;52402;52.670;6.750;2022-11-06T04:23:13;13.45;;;6.20;;
60292;SDS011;52402;52.670;6.750;2022-11-06T04:26:08;11.43;;;5.75;;
60292;SDS011;52402;52.670;6.750;2022-11-06T04:31:49;12.13;;;5.95;;
60292;SDS011;52402;52.670;6.750;2022-11-06T04:34:44;12.75;;;5.63;;
60292;SDS011;52402;52.670;6.750;2022-11-06T04:43:39;11.20;;;5.65;;
60292;SDS011;52402;52.670;6.750;2022-11-06T04:46:26;11.35;;;5.43;;
60292;SDS011;52402;52.670;6.750;2022-11-06T04:48:57;12.65;;;5.28;;
60292;SDS011;52402;52.670;6.750;2022-11-06T04:51:26;10.73;;;5.32;;
60292;SDS011;52402;52.670;6.750;2022-11-06T04:53:56;9.02;;;5.30;;
60292;SDS011;52402;52.670;6.750;2022-11-06T04:56:25;11.80;;;5.50;;
60292;SDS011;52402;52.670;6.750;2022-11-06T04:58:54;11.15;;;5.18;;
60292;SDS011;52402;52.670;6.750;2022-11-06T05:01:19;11.20;;;5.28;;
60292;SDS011;52402;52.670;6.750;2022-11-06T05:03:45;12.00;;;5.38;;
60292;SDS011;52402;52.670;6.750;2022-11-06T05:06:11;10.30;;;5.75;;
60292;SDS011;52402;52.670;6.750;2022-11-06T05:08:37;9.77;;;5.85;;
60292;SDS011;52402;52.670;6.750;2022-11-06T05:11:02;10.85;;;5.30;;
60292;SDS011;52402;52.670;6.750;2022-11-06T05:13:28;12.65;;;5.72;;
60292;SDS011;52402;52.670;6.750;2022-11-06T05:15:54;9.48;;;5.70;;
60292;SDS011;52402;52.670;6.750;2022-11-06T05:18:21;11.50;;;5.65;;
60292;SDS011;52402;52.670;6.750;2022-11-06T05:20:48;11.60;;;5.57;;
60292;SDS011;52402;52.670;6.750;2022-11-06T05:23:34;12.13;;;5.40;;
60292;SDS011;52402;52.670;6.750;2022-11-06T05:26:02;11.73;;;5.22;;
60292;SDS011;52402;52.670;6.750;2022-11-06T05:28:28;10.52;;;4.45;;
60292;SDS011;52402;52.670;6.750;2022-11-06T05:30:54;11.90;;;4.65;;
60292;SDS011;52402;52.670;6.750;2022-11-06T05:33:19;9.45;;;4.50;;
60292;SDS011;52402;52.670;6.750;2022-11-06T05:35:45;10.95;;;4.80;;
60292;SDS011;52402;52.670;6.750;2022-11-06T05:38:10;9.68;;;4.55;;
60292;SDS011;52402;52.670;6.750;2022-11-06T05:40:36;10.75;;;4.53;;
60292;SDS011;52402;52.670;6.750;2022-11-06T05:43:02;9.57;;;4.78;;
60292;SDS011;52402;52.670;6.750;2022-11-06T05:45:28;10.27;;;4.57;;
60292;SDS011;52402;52.670;6.750;2022-11-06T05:47:53;11.30;;;4.65;;
60292;SDS011;52402;52.670;6.750;2022-11-06T05:50:19;9.35;;;4.57;;
60292;SDS011;52402;52.670;6.750;2022-11-06T05:52:44;11.15;;;4.80;;
60292;SDS011;52402;52.670;6.750;2022-11-06T05:55:10;8.50;;;4.20;;
60292;SDS011;52402;52.670;6.750;2022-11-06T05:57:36;11.73;;;4.47;;
60292;SDS011;52402;52.670;6.750;2022-11-06T06:00:02;9.80;;;4.32;;
60292;SDS011;52402;52.670;6.750;2022-11-06T06:02:30;8.77;;;4.22;;
60292;SDS011;52402;52.670;6.750;2022-11-06T06:04:55;12.18;;;4.20;;
60292;SDS011;52402;52.670;6.750;2022-11-06T06:07:21;9.32;;;4.38;;
60292;SDS011;52402;52.670;6.750;2022-11-06T06:09:46;10.23;;;4.20;;
60292;SDS011;52402;52.670;6.750;2022-11-06T06:12:12;8.57;;;3.90;;
60292;SDS011;52402;52.670;6.750;2022-11-06T06:14:38;8.40;;;4.10;;
60292;SDS011;52402;52.670;6.750;2022-11-06T06:17:04;10.02;;;4.80;;
60292;SDS011;52402;52.670;6.750;2022-11-06T06:19:29;10.70;;;4.88;;
60292;SDS011;52402;52.670;6.750;2022-11-06T06:21:55;11.90;;;4.45;;
60292;SDS011;52402;52.670;6.750;2022-11-06T06:24:20;8.73;;;4.25;;
60292;SDS011;52402;52.670;6.750;2022-11-06T06:26:46;12.05;;;5.03;;
60292;SDS011;52402;52.670;6.750;2022-11-06T06:29:12;10.95;;;4.30;;
60292;SDS011;52402;52.670;6.750;2022-11-06T06:31:37;10.50;;;4.40;;
60292;SDS011;52402;52.670;6.750;2022-11-06T06:34:03;11.50;;;4.72;;
60292;SDS011;52402;52.670;6.750;2022-11-06T06:36:28;10.77;;;4.47;;
60292;SDS011;52402;52.670;6.750;2022-11-06T06:38:54;11.55;;;4.95;;
60292;SDS011;52402;52.670;6.750;2022-11-06T06:41:20;11.77;;;4.30;;
60292;SDS011;52402;52.670;6.750;2022-11-06T06:43:48;9.95;;;4.40;;
60292;SDS011;52402;52.670;6.750;2022-11-06T06:46:15;10.43;;;4.05;;
60292;SDS011;52402;52.670;6.750;2022-11-06T06:48:41;9.88;;;4.13;;
60292;SDS011;52402;52.670;6.750;2022-11-06T06:51:07;10.10;;;4.45;;
60292;SDS011;52402;52.670;6.750;2022-11-06T06:53:33;9.20;;;3.75;;
60292;SDS011;52402;52.670;6.750;2022-11-06T06:56:00;10.35;;;3.95;;
60292;SDS011;52402;52.670;6.750;2022-11-06T06:58:26;9.23;;;4.03;;
60292;SDS011;52402;52.670;6.750;2022-11-06T07:00:53;9.95;;;4.30;;
60292;SDS011;52402;52.670;6.750;2022-11-06T07:03:19;8.07;;;3.88;;
60292;SDS011;52402;52.670;6.750;2022-11-06T07:05:45;10.80;;;4.00;;
60292;SDS011;52402;52.670;6.750;2022-11-06T07:08:11;9.65;;;4.00;;
60292;SDS011;52402;52.670;6.750;2022-11-06T07:10:37;10.60;;;3.60;;
60292;SDS011;52402;52.670;6.750;2022-11-06T07:13:03;9.80;;;4.22;;
60292;SDS011;52402;52.670;6.750;2022-11-06T07:15:29;10.38;;;3.80;;
60292;SDS011;52402;52.670;6.750;2022-11-06T07:18:05;11.23;;;4.18;;
60292;SDS011;52402;52.670;6.750;2022-11-06T07:20:31;8.90;;;4.20;;
60292;SDS011;52402;52.670;6.750;2022-11-06T07:22:57;11.80;;;4.47;;
60292;SDS011;52402;52.670;6.750;2022-11-06T07:25:24;12.32;;;4.45;;
60292;SDS011;52402;52.670;6.750;2022-11-06T07:27:50;12.55;;;4.18;;
60292;SDS011;52402;52.670;6.750;2022-11-06T07:30:15;10.82;;;3.58;;
60292;SDS011;52402;52.670;6.750;2022-11-06T07:32:41;10.60;;;3.95;;
60292;SDS011;52402;52.670;6.750;2022-11-06T07:35:07;10.48;;;3.92;;
60292;SDS011;52402;52.670;6.750;2022-11-06T07:37:34;11.20;;;3.70;;
60292;SDS011;52402;52.670;6.750;2022-11-06T07:40:00;10.18;;;3.83;;
60292;SDS011;52402;52.670;6.750;2022-11-06T07:42:26;12.90;;;4.40;;
60292;SDS011;52402;52.670;6.750;2022-11-06T07:44:52;10.63;;;3.70;;
60292;SDS011;52402;52.670;6.750;2022-11-06T07:47:19;9.63;;;3.55;;
60292;SDS011;52402;52.670;6.750;2022-11-06T07:49:50;8.73;;;3.85;;
60292;SDS011;52402;52.670;6.750;2022-11-06T07:52:15;10.52;;;3.90;;
60292;SDS011;52402;52.670;6.750;2022-11-06T07:54:41;10.95;;;3.47;;
60292;SDS011;52402;52.670;6.750;2022-11-06T07:57:06;12.90;;;3.95;;
60292;SDS011;52402;52.670;6.750;2022-11-06T07:59:32;11.07;;;3.70;;
60292;SDS011;52402;52.670;6.750;2022-11-06T08:01:58;11.70;;;4.05;;
60292;SDS011;52402;52.670;6.750;2022-11-06T08:04:24;8.90;;;3.78;;
60292;SDS011;52402;52.670;6.750;2022-11-06T08:06:50;9.43;;;3.47;;
60292;SDS011;52402;52.670;6.750;2022-11-06T08:09:15;9.13;;;3.78;;
60292;SDS011;52402;52.670;6.750;2022-11-06T08:11:41;8.45;;;3.50;;
60292;SDS011;52402;52.670;6.750;2022-11-06T08:14:06;9.27;;;3.63;;
60292;SDS011;52402;52.670;6.750;2022-11-06T08:16:32;10.30;;;3.60;;
60292;SDS011;52402;52.670;6.750;2022-11-06T08:18:58;8.48;;;3.60;;
60292;SDS011;52402;52.670;6.750;2022-11-06T08:21:23;8.68;;;3.97;;
60292;SDS011;52402;52.670;6.750;2022-11-06T08:23:51;10.43;;;4.03;;
60292;SDS011;52402;52.670;6.750;2022-11-06T08:26:20;11.93;;;3.60;;
60292;SDS011;52402;52.670;6.750;2022-11-06T08:28:48;7.80;;;3.10;;
60292;SDS011;52402;52.670;6.750;2022-11-06T08:31:14;9.00;;;3.65;;
60292;SDS011;52402;52.670;6.750;2022-11-06T08:33:42;7.80;;;3.60;;
60292;SDS011;52402;52.670;6.750;2022-11-06T08:36:08;9.75;;;3.33;;
60292;SDS011;52402;52.670;6.750;2022-11-06T08:38:37;10.35;;;3.70;;
60292;SDS011;52402;52.670;6.750;2022-11-06T08:41:03;10.38;;;4.00;;
60292;SDS011;52402;52.670;6.750;2022-11-06T08:43:30;10.13;;;3.38;;
60292;SDS011;52402;52.670;6.750;2022-11-06T08:45:56;8.88;;;3.28;;
60292;SDS011;52402;52.670;6.750;2022-11-06T08:48:24;12.43;;;3.85;;
60292;SDS011;52402;52.670;6.750;2022-11-06T08:50:49;7.65;;;3.25;;
60292;SDS011;52402;52.670;6.750;2022-11-06T08:53:15;10.15;;;3.70;;
60292;SDS011;52402;52.670;6.750;2022-11-06T08:55:40;8.00;;;3.17;;
60292;SDS011;52402;52.670;6.750;2022-11-06T08:58:07;8.82;;;3.33;;
60292;SDS011;52402;52.670;6.750;2022-11-06T09:00:33;6.50;;;3.10;;
60292;SDS011;52402;52.670;6.750;2022-11-06T09:03:03;7.68;;;2.88;;
60292;SDS011;52402;52.670;6.750;2022-11-06T09:05:32;8.68;;;3.42;;
60292;SDS011;52402;52.670;6.750;2022-11-06T09:07:58;9.95;;;3.38;;
60292;SDS011;52402;52.670;6.750;2022-11-06T09:10:24;7.85;;;3.25;;
60292;SDS011;52402;52.670;6.750;2022-11-06T09:12:50;10.38;;;3.58;;
60292;SDS011;52402;52.670;6.750;2022-11-06T09:15:16;8.68;;;3.40;;
60292;SDS011;52402;52.670;6.750;2022-11-06T09:17:47;7.13;;;3.38;;
60292;SDS011;52402;52.670;6.750;2022-11-06T09:20:14;9.68;;;3.50;;
60292;SDS011;52402;52.670;6.750;2022-11-06T09:22:40;9.60;;;3.03;;
60292;SDS011;52402;52.670;6.750;2022-11-06T09:25:06;9.20;;;3.00;;
60292;SDS011;52402;52.670;6.750;2022-11-06T09:27:32;9.38;;;2.90;;
60292;SDS011;52402;52.670;6.750;2022-11-06T09:30:05;10.50;;;3.35;;
60292;SDS011;52402;52.670;6.750;2022-11-06T09:32:31;9.73;;;3.22;;
60292;SDS011;52402;52.670;6.750;2022-11-06T09:34:57;10.00;;;3.20;;
60292;SDS011;52402;52.670;6.750;2022-11-06T09:37:23;9.77;;;3.35;;
60292;SDS011;52402;52.670;6.750;2022-11-06T09:39:49;9.10;;;2.90;;
60292;SDS011;52402;52.670;6.750;2022-11-06T09:42:21;9.27;;;2.97;;
60292;SDS011;52402;52.670;6.750;2022-11-06T09:47:36;9.75;;;4.40;;
60292;SDS011;52402;52.670;6.750;2022-11-06T09:50:09;9.93;;;3.60;;
60292;SDS011;52402;52.670;6.750;2022-11-06T09:52:56;10.57;;;3.53;;
60292;SDS011;52402;52.670;6.750;2022-11-06T09:55:34;9.77;;;3.10;;
60292;SDS011;52402;52.670;6.750;2022-11-06T09:58:12;9.38;;;3.83;;
60292;SDS011;52402;52.670;6.750;2022-11-06T10:00:50;9.07;;;3.00;;
60292;SDS011;52402;52.670;6.750;2022-11-06T10:03:23;9.65;;;3.85;;
60292;SDS011;52402;52.670;6.750;2022-11-06T10:05:54;8.27;;;2.92;;
60292;SDS011;52402;52.670;6.750;2022-11-06T10:08:27;8.20;;;3.00;;
60292;SDS011;52402;52.670;6.750;2022-11-06T10:13:59;6.90;;;2.75;;
60292;SDS011;52402;52.670;6.750;2022-11-06T10:16:39;10.55;;;3.10;;
60292;SDS011;52402;52.670;6.750;2022-11-06T10:19:31;9.00;;;2.92;;
60292;SDS011;52402;52.670;6.750;2022-11-06T10:24:38;8.05;;;2.65;;
60292;SDS011;52402;52.670;6.750;2022-11-06T10:27:26;9.73;;;3.03;;
60292;SDS011;52402;52.670;6.750;2022-11-06T10:35:56;8.35;;;2.88;;
60292;SDS011;52402;52.670;6.750;2022-11-06T10:38:28;8.50;;;2.85;;
60292;SDS011;52402;52.670;6.750;2022-11-06T10:41:03;8.45;;;3.03;;
60292;SDS011;52402;52.670;6.750;2022-11-06T10:43:52;8.30;;;2.47;;
60292;SDS011;52402;52.670;6.750;2022-11-06T10:48:55;8.18;;;3.00;;
60292;SDS011;52402;52.670;6.750;2022-11-06T11:00:13;6.90;;;2.65;;
60292;SDS011;52402;52.670;6.750;2022-11-06T11:02:48;9.98;;;2.55;;
60292;SDS011;52402;52.670;6.750;2022-11-06T11:05:19;7.80;;;2.33;;
60292;SDS011;52402;52.670;6.750;2022-11-06T11:07:46;6.35;;;2.50;;
60292;SDS011;52402;52.670;6.750;2022-11-06T11:12:50;6.57;;;2.53;;
60292;SDS011;52402;52.670;6.750;2022-11-06T11:15:19;7.25;;;2.30;;
60292;SDS011;52402;52.670;6.750;2022-11-06T11:20:36;7.68;;;2.55;;
60292;SDS011;52402;52.670;6.750;2022-11-06T11:26:29;6.60;;;2.40;;
60292;SDS011;52402;52.670;6.750;2022-11-06T11:28:56;6.75;;;2.30;;
60292;SDS011;52402;52.670;6.750;2022-11-06T11:31:33;8.10;;;2.40;;
60292;SDS011;52402;52.670;6.750;2022-11-06T11:34:00;7.90;;;2.50;;
60292;SDS011;52402;52.670;6.750;2022-11-06T11:36:45;6.05;;;2.53;;
60292;SDS011;52402;52.670;6.750;2022-11-06T11:39:16;8.15;;;2.72;;
60292;SDS011;52402;52.670;6.750;2022-11-06T11:41:44;7.25;;;2.60;;
60292;SDS011;52402;52.670;6.750;2022-11-06T11:46:36;8.73;;;2.60;;
60292;SDS011;52402;52.670;6.750;2022-11-06T11:49:30;7.88;;;2.58;;
60292;SDS011;52402;52.670;6.750;2022-11-06T11:52:03;7.40;;;2.55;;
60292;SDS011;52402;52.670;6.750;2022-11-06T11:54:35;6.97;;;2.70;;
60292;SDS011;52402;52.670;6.750;2022-11-06T11:57:04;6.93;;;2.70;;
60292;SDS011;52402;52.670;6.750;2022-11-06T12:04:56;7.28;;;2.85;;
60292;SDS011;52402;52.670;6.750;2022-11-06T12:07:28;7.40;;;2.50;;
60292;SDS011;52402;52.670;6.750;2022-11-06T12:09:58;6.82;;;2.40;;
60292;SDS011;52402;52.670;6.750;2022-11-06T12:12:30;7.63;;;2.40;;
60292;SDS011;52402;52.670;6.750;2022-11-06T12:17:57;7.95;;;2.70;;
60292;SDS011;52402;52.670;6.750;2022-11-06T12:20:37;6.88;;;2.40;;
60292;SDS011;52402;52.670;6.750;2022-11-06T12:23:09;6.90;;;2.60;;
60292;SDS011;52402;52.670;6.750;2022-11-06T12:25:46;8.05;;;2.70;;
60292;SDS011;52402;52.670;6.750;2022-11-06T12:28:30;7.30;;;2.67;;
60292;SDS011;52402;52.670;6.750;2022-11-06T12:31:01;7.85;;;2.80;;
60292;SDS011;52402;52.670;6.750;2022-11-06T12:33:31;8.20;;;3.05;;
60292;SDS011;52402;52.670;6.750;2022-11-06T12:36:06;8.40;;;2.58;;
60292;SDS011;52402;52.670;6.750;2022-11-06T12:38:40;7.75;;;2.63;;
60292;SDS011;52402;52.670;6.750;2022-11-06T12:41:14;7.68;;;2.50;;
60292;SDS011;52402;52.670;6.750;2022-11-06T12:43:51;7.75;;;2.50;;
60292;SDS011;52402;52.670;6.750;2022-11-06T13:00:11;8.10;;;2.40;;
60292;SDS011;52402;52.670;6.750;2022-11-06T13:06:15;15.93;;;3.00;;
60292;SDS011;52402;52.670;6.750;2022-11-06T13:11:31;8.27;;;3.00;;
60292;SDS011;52402;52.670;6.750;2022-11-06T13:14:07;8.38;;;3.25;;
60292;SDS011;52402;52.670;6.750;2022-11-06T13:19:31;6.70;;;1.80;;
60292;SDS011;52402;52.670;6.750;2022-11-06T13:30:30;5.35;;;2.22;;
60292;SDS011;52402;52.670;6.750;2022-11-06T13:35:31;8.18;;;2.40;;
60292;SDS011;52402;52.670;6.750;2022-11-06T13:37:57;7.45;;;2.33;;
60292;SDS011;52402;52.670;6.750;2022-11-06T13:40:26;6.18;;;2.30;;
60292;SDS011;52402;52.670;6.750;2022-11-06T13:45:40;6.45;;;2.55;;
60292;SDS011;52402;52.670;6.750;2022-11-06T13:48:26;7.15;;;2.70;;
60292;SDS011;52402;52.670;6.750;2022-11-06T13:51:02;8.93;;;2.83;;
60292;SDS011;52402;52.670;6.750;2022-11-06T13:53:38;7.32;;;2.78;;
60292;SDS011;52402;52.670;6.750;2022-11-06T14:07:32;7.32;;;3.00;;
60292;SDS011;52402;52.670;6.750;2022-11-06T14:09:58;7.18;;;2.83;;
60292;SDS011;52402;52.670;6.750;2022-11-06T14:12:24;7.53;;;2.92;;
60292;SDS011;52402;52.670;6.750;2022-11-06T14:14:51;8.25;;;3.65;;
60292;SDS011;52402;52.670;6.750;2022-11-06T14:17:37;9.23;;;3.60;;
60292;SDS011;52402;52.670;6.750;2022-11-06T14:20:05;7.78;;;3.50;;
60292;SDS011;52402;52.670;6.750;2022-11-06T14:22:50;9.10;;;3.38;;
60292;SDS011;52402;52.670;6.750;2022-11-06T14:32:54;8.23;;;3.20;;
60292;SDS011;52402;52.670;6.750;2022-11-06T14:40:42;7.13;;;3.00;;
60292;SDS011;52402;52.670;6.750;2022-11-06T14:45:56;6.65;;;2.88;;
60292;SDS011;52402;52.670;6.750;2022-11-06T14:48:24;9.23;;;3.30;;
60292;SDS011;52402;52.670;6.750;2022-11-06T14:50:52;10.00;;;3.00;;
60292;SDS011;52402;52.670;6.750;2022-11-06T14:53:19;7.63;;;3.33;;
60292;SDS011;52402;52.670;6.750;2022-11-06T14:55:55;8.18;;;3.05;;
60292;SDS011;52402;52.670;6.750;2022-11-06T14:58:25;8.45;;;3.33;;
60292;SDS011;52402;52.670;6.750;2022-11-06T15:03:51;7.65;;;3.10;;
60292;SDS011;52402;52.670;6.750;2022-11-06T15:08:53;6.60;;;3.00;;
60292;SDS011;52402;52.670;6.750;2022-11-06T15:16:43;7.95;;;3.50;;
60292;SDS011;52402;52.670;6.750;2022-11-06T15:19:19;8.48;;;3.35;;
60292;SDS011;52402;52.670;6.750;2022-11-06T15:21:51;6.32;;;3.53;;
60292;SDS011;52402;52.670;6.750;2022-11-06T15:24:24;9.27;;;3.30;;
60292;SDS011;52402;52.670;6.750;2022-11-06T15:27:15;7.75;;;3.22;;
60292;SDS011;52402;52.670;6.750;2022-11-06T15:29:46;8.48;;;3.88;;
60292;SDS011;52402;52.670;6.750;2022-11-06T15:32:20;10.15;;;3.78;;
60292;SDS011;52402;52.670;6.750;2022-11-06T15:37:29;10.02;;;3.90;;
60292;SDS011;52402;52.670;6.750;2022-11-06T15:42:29;7.03;;;3.80;;
60292;SDS011;52402;52.670;6.750;2022-11-06T15:45:05;8.38;;;3.85;;
60292;SDS011;52402;52.670;6.750;2022-11-06T15:50:26;9.88;;;4.03;;
60292;SDS011;52402;52.670;6.750;2022-11-06T15:52:52;9.15;;;3.95;;
60292;SDS011;52402;52.670;6.750;2022-11-06T15:55:25;9.43;;;4.05;;
60292;SDS011;52402;52.670;6.750;2022-11-06T16:00:40;9.57;;;4.10;;
60292;SDS011;52402;52.670;6.750;2022-11-06T16:03:15;9.23;;;3.92;;
60292;SDS011;52402;52.670;6.750;2022-11-06T16:05:46;9.85;;;4.70;;
60292;SDS011;52402;52.670;6.750;2022-11-06T16:08:12;7.50;;;3.97;;
60292;SDS011;52402;52.670;6.750;2022-11-06T16:10:39;8.65;;;4.28;;
60292;SDS011;52402;52.670;6.750;2022-11-06T16:13:06;7.93;;;3.30;;
60292;SDS011;52402;52.670;6.750;2022-11-06T16:18:27;8.30;;;3.65;;
60292;SDS011;52402;52.670;6.750;2022-11-06T16:21:18;8.98;;;3.72;;
60292;SDS011;52402;52.670;6.750;2022-11-06T16:23:46;8.25;;;3.35;;
60292;SDS011;52402;52.670;6.750;2022-11-06T16:26:21;5.95;;;2.53;;
60292;SDS011;52402;52.670;6.750;2022-11-06T16:28:49;4.32;;;1.58;;
60292;SDS011;52402;52.670;6.750;2022-11-06T16:31:21;3.97;;;1.45;;
60292;SDS011;52402;52.670;6.750;2022-11-06T16:33:59;4.72;;;1.50;;
60292;SDS011;52402;52.670;6.750;2022-11-06T16:36:27;4.78;;;1.35;;
60292;SDS011;52402;52.670;6.750;2022-11-06T16:41:58;5.72;;;1.73;;
60292;SDS011;52402;52.670;6.750;2022-11-06T16:44:24;6.43;;;1.88;;
60292;SDS011;52402;52.670;6.750;2022-11-06T16:49:30;6.35;;;2.17;;
60292;SDS011;52402;52.670;6.750;2022-11-06T16:55:04;5.28;;;2.35;;
60292;SDS011;52402;52.670;6.750;2022-11-06T16:57:43;4.72;;;2.35;;
60292;SDS011;52402;52.670;6.750;2022-11-06T17:05:29;6.55;;;2.70;;
60292;SDS011;52402;52.670;6.750;2022-11-06T17:10:57;5.95;;;2.90;;
60292;SDS011;52402;52.670;6.750;2022-11-06T17:13:41;7.18;;;3.38;;
60292;SDS011;52402;52.670;6.750;2022-11-06T17:16:16;8.05;;;4.00;;
60292;SDS011;52402;52.670;6.750;2022-11-06T17:19:02;7.05;;;3.67;;
60292;SDS011;52402;52.670;6.750;2022-11-06T17:21:27;5.97;;;3.05;;
60292;SDS011;52402;52.670;6.750;2022-11-06T17:23:53;6.80;;;3.20;;
60292;SDS011;52402;52.670;6.750;2022-11-06T17:28:49;7.03;;;3.25;;
60292;SDS011;52402;52.670;6.750;2022-11-06T17:31:16;6.57;;;3.60;;
60292;SDS011;52402;52.670;6.750;2022-11-06T17:33:42;6.97;;;4.05;;
60292;SDS011;52402;52.670;6.750;2022-11-06T17:36:22;5.95;;;3.47;;
60292;SDS011;52402;52.670;6.750;2022-11-06T17:38:49;7.20;;;3.60;;
60292;SDS011;52402;52.670;6.750;2022-11-06T17:41:15;5.45;;;2.95;;
60292;SDS011;52402;52.670;6.750;2022-11-06T17:43:57;8.27;;;3.10;;
60292;SDS011;52402;52.670;6.750;2022-11-06T17:46:24;6.90;;;3.10;;
60292;SDS011;52402;52.670;6.750;2022-11-06T17:48:51;7.18;;;3.10;;
60292;SDS011;52402;52.670;6.750;2022-11-06T17:51:17;7.78;;;3.78;;
60292;SDS011;52402;52.670;6.750;2022-11-06T17:54:01;5.50;;;3.10;;
60292;SDS011;52402;52.670;6.750;2022-11-06T17:56:27;8.63;;;4.10;;
60292;SDS011;52402;52.670;6.750;2022-11-06T17:58:52;7.35;;;4.88;;
60292;SDS011;52402;52.670;6.750;2022-11-06T18:01:18;6.70;;;4.03;;
60292;SDS011;52402;52.670;6.750;2022-11-06T18:03:43;7.07;;;4.00;;
60292;SDS011;52402;52.670;6.750;2022-11-06T18:06:13;7.70;;;4.43;;
60292;SDS011;52402;52.670;6.750;2022-11-06T18:08:39;8.27;;;4.30;;
60292;SDS011;52402;52.670;6.750;2022-11-06T18:11:06;6.88;;;4.57;;